sensor_id;sensor_type;location;lat;lon;timestamp;pressure;altitude;pressure_sealevel;temperature;humidity
43153;BME280;28756;49.064;9.290;2022-12-13T00:01:53;98588.78;;;-8.21;100.00
43153;BME280;28756;49.064;9.290;2022-12-13T00:04:21;98573.06;;;-8.02;100.00
43153;BME280;28756;49.064;9.290;2022-12-13T00:06:48;98577.28;;;-7.98;100.00
43153;BME280;28756;49.064;9.290;2022-12-13T00:09:16;98573.25;;;-7.85;100.00
43153;BME280;28756;49.064;9.290;2022-12-13T00:11:43;98573.28;;;-7.80;100.00
43153;BME280;28756;49.064;9.290;2022-12-13T00:14:10;98564.19;;;-7.67;100.00
43153;BME280;28756;49.064;9.290;2022-12-13T00:16:38;98561.81;;;-7.52;100.00
43153;BME280;28756;49.064;9.290;2022-12-13T00:19:05;98564.38;;;-7.47;100.00
43153;BME280;28756;49.064;9.290;2022-12-13T00:21:32;98556.84;;;-7.38;100.00
43153;BME280;28756;49.064;9.290;2022-12-13T00:23:59;98550.34;;;-7.11;100.00
43153;BME280;28756;49.064;9.290;2022-12-13T00:26:29;98544.72;;;-6.73;100.00
43153;BME280;28756;49.064;9.290;2022-12-13T00:28:59;98535.63;;;-6.41;100.00
43153;BME280;28756;49.064;9.290;2022-12-13T00:31:26;98529.78;;;-6.29;100.00
43153;BME280;28756;49.064;9.290;2022-12-13T00:33:52;98527.34;;;-6.05;100.00
43153;BME280;28756;49.064;9.290;2022-12-13T00:36:18;98521.41;;;-6.05;100.00
43153;BME280;28756;49.064;9.290;2022-12-13T00:38:44;98521.44;;;-6.08;100.00
43153;BME280;28756;49.064;9.290;2022-12-13T00:41:18;98519.75;;;-5.92;100.00
43153;BME280;28756;49.064;9.290;2022-12-13T00:43:44;98507.94;;;-5.85;100.00
43153;BME280;28756;49.064;9.290;2022-12-13T00:46:16;98501.19;;;-5.90;100.00
43153;BME280;28756;49.064;9.290;2022-12-13T00:48:43;98510.47;;;-5.82;100.00
43153;BME280;28756;49.064;9.290;2022-12-13T00:51:12;98503.72;;;-5.91;100.00
43153;BME280;28756;49.064;9.290;2022-12-13T00:53:38;98502.84;;;-5.92;100.00
43153;BME280;28756;49.064;9.290;2022-12-13T00:56:10;98507.94;;;-5.95;100.00
43153;BME280;28756;49.064;9.290;2022-12-13T00:58:37;98511.28;;;-5.96;100.00
43153;BME280;28756;49.064;9.290;2022-12-13T01:01:07;98510.44;;;-5.98;100.00
43153;BME280;28756;49.064;9.290;2022-12-13T01:03:33;98510.44;;;-6.07;100.00
43153;BME280;28756;49.064;9.290;2022-12-13T01:05:59;98512.97;;;-6.13;100.00
43153;BME280;28756;49.064;9.290;2022-12-13T01:08:26;98501.97;;;-6.25;100.00
43153;BME280;28756;49.064;9.290;2022-12-13T01:10:52;98508.69;;;-6.33;100.00
43153;BME280;28756;49.064;9.290;2022-12-13T01:13:18;98506.94;;;-6.43;100.00
43153;BME280;28756;49.064;9.290;2022-12-13T01:15:46;98506.91;;;-6.48;100.00
43153;BME280;28756;49.064;9.290;2022-12-13T01:18:13;98508.56;;;-6.58;100.00
43153;BME280;28756;49.064;9.290;2022-12-13T01:23:24;98506.91;;;-6.49;100.00
43153;BME280;28756;49.064;9.290;2022-12-13T01:25:50;98512.75;;;-6.58;100.00
43153;BME280;28756;49.064;9.290;2022-12-13T01:28:16;98504.28;;;-6.68;100.00
43153;BME280;28756;49.064;9.290;2022-12-13T01:30:42;98505.16;;;-6.68;100.00
43153;BME280;28756;49.064;9.290;2022-12-13T01:33:07;98501.75;;;-6.71;100.00
43153;BME280;28756;49.064;9.290;2022-12-13T01:35:34;98505.06;;;-6.78;100.00
43153;BME280;28756;49.064;9.290;2022-12-13T01:38:00;98509.22;;;-6.88;100.00
43153;BME280;28756;49.064;9.290;2022-12-13T01:40:26;98500.75;;;-7.00;100.00
43153;BME280;28756;49.064;9.290;2022-12-13T01:42:52;98507.50;;;-6.99;100.00
43153;BME280;28756;49.064;9.290;2022-12-13T01:45:26;98498.97;;;-7.08;100.00
43153;BME280;28756;49.064;9.290;2022-12-13T01:48:00;98497.19;;;-7.23;100.00
43153;BME280;28756;49.064;9.290;2022-12-13T01:50:34;98495.34;;;-7.41;100.00
43153;BME280;28756;49.064;9.290;2022-12-13T01:53:05;98497.84;;;-7.49;100.00
43153;BME280;28756;49.064;9.290;2022-12-13T01:55:35;98502.81;;;-7.57;100.00
43153;BME280;28756;49.064;9.290;2022-12-13T01:58:02;98501.09;;;-7.63;100.00
43153;BME280;28756;49.064;9.290;2022-12-13T02:00:29;98503.53;;;-7.72;100.00
43153;BME280;28756;49.064;9.290;2022-12-13T02:02:57;98511.06;;;-7.78;100.00
43153;BME280;28756;49.064;9.290;2022-12-13T02:05:44;98504.22;;;-7.87;100.00
43153;BME280;28756;49.064;9.290;2022-12-13T02:08:14;98509.19;;;-7.93;100.00
43153;BME280;28756;49.064;9.290;2022-12-13T02:10:42;98503.34;;;-7.89;100.00
43153;BME280;28756;49.064;9.290;2022-12-13T02:13:08;98491.53;;;-7.91;100.00
43153;BME280;28756;49.064;9.290;2022-12-13T02:16:09;98496.59;;;-7.91;100.00
43153;BME280;28756;49.064;9.290;2022-12-13T02:30:57;98491.34;;;-8.12;100.00
43153;BME280;28756;49.064;9.290;2022-12-13T02:36:42;98492.13;;;-8.17;100.00
43153;BME280;28756;49.064;9.290;2022-12-13T02:39:17;98487.03;;;-8.22;100.00
43153;BME280;28756;49.064;9.290;2022-12-13T02:41:52;98488.63;;;-8.29;100.00
43153;BME280;28756;49.064;9.290;2022-12-13T02:44:45;98492.75;;;-8.35;100.00
43153;BME280;28756;49.064;9.290;2022-12-13T02:47:22;98487.59;;;-8.46;100.00
43153;BME280;28756;49.064;9.290;2022-12-13T02:49:53;98487.53;;;-8.54;100.00
43153;BME280;28756;49.064;9.290;2022-12-13T02:52:24;98487.47;;;-8.59;100.00
43153;BME280;28756;49.064;9.290;2022-12-13T02:54:54;98480.59;;;-8.72;100.00
43153;BME280;28756;49.064;9.290;2022-12-13T02:57:39;98483.13;;;-8.72;100.00
43153;BME280;28756;49.064;9.290;2022-12-13T03:00:14;98490.63;;;-8.74;100.00
43153;BME280;28756;49.064;9.290;2022-12-13T03:11:18;98495.41;;;-8.94;100.00
43153;BME280;28756;49.064;9.290;2022-12-13T03:13:59;98488.56;;;-9.04;100.00
43153;BME280;28756;49.064;9.290;2022-12-13T03:19:00;98481.97;;;-8.96;100.00
43153;BME280;28756;49.064;9.290;2022-12-13T03:21:26;98483.56;;;-8.99;100.00
43153;BME280;28756;49.064;9.290;2022-12-13T03:23:52;98486.06;;;-9.01;100.00
43153;BME280;28756;49.064;9.290;2022-12-13T03:26:25;98477.91;;;-8.83;100.00
43153;BME280;28756;49.064;9.290;2022-12-13T03:28:52;98479.66;;;-8.79;100.00
43153;BME280;28756;49.064;9.290;2022-12-13T03:31:18;98471.47;;;-8.61;100.00
43153;BME280;28756;49.064;9.290;2022-12-13T03:33:44;98469.84;;;-8.55;100.00
43153;BME280;28756;49.064;9.290;2022-12-13T03:36:11;98466.53;;;-8.53;100.00
43153;BME280;28756;49.064;9.290;2022-12-13T03:38:37;98469.22;;;-8.36;100.00
43153;BME280;28756;49.064;9.290;2022-12-13T03:41:12;98470.88;;;-8.36;100.00
43153;BME280;28756;49.064;9.290;2022-12-13T03:43:39;98454.16;;;-8.28;100.00
43153;BME280;28756;49.064;9.290;2022-12-13T03:46:06;98457.44;;;-8.37;100.00
43153;BME280;28756;49.064;9.290;2022-12-13T03:48:32;98466.63;;;-8.42;100.00
43153;BME280;28756;49.064;9.290;2022-12-13T03:50:58;98454.03;;;-8.41;100.00
43153;BME280;28756;49.064;9.290;2022-12-13T03:53:25;98456.56;;;-8.41;100.00
43153;BME280;28756;49.064;9.290;2022-12-13T03:55:50;98451.44;;;-8.50;100.00
43153;BME280;28756;49.064;9.290;2022-12-13T03:58:16;98453.06;;;-8.55;100.00
43153;BME280;28756;49.064;9.290;2022-12-13T04:00:42;98443.75;;;-8.59;100.00
43153;BME280;28756;49.064;9.290;2022-12-13T04:03:08;98444.63;;;-8.55;100.00
43153;BME280;28756;49.064;9.290;2022-12-13T04:05:34;98441.22;;;-8.59;100.00
43153;BME280;28756;49.064;9.290;2022-12-13T04:08:00;98441.22;;;-8.59;100.00
43153;BME280;28756;49.064;9.290;2022-12-13T04:10:25;98442.09;;;-8.59;100.00
43153;BME280;28756;49.064;9.290;2022-12-13T04:12:52;98446.31;;;-8.58;100.00
43153;BME280;28756;49.064;9.290;2022-12-13T04:15:37;98443.84;;;-8.51;100.00
43153;BME280;28756;49.064;9.290;2022-12-13T04:18:03;98449.81;;;-8.43;100.00
43153;BME280;28756;49.064;9.290;2022-12-13T04:20:29;98456.50;;;-8.44;100.00
43153;BME280;28756;49.064;9.290;2022-12-13T04:22:55;98456.50;;;-8.44;100.00
43153;BME280;28756;49.064;9.290;2022-12-13T04:25:21;98459.03;;;-8.45;100.00
43153;BME280;28756;49.064;9.290;2022-12-13T04:27:47;98457.28;;;-8.51;100.00
43153;BME280;28756;49.064;9.290;2022-12-13T04:30:13;98454.72;;;-8.57;100.00
43153;BME280;28756;49.064;9.290;2022-12-13T04:32:39;98458.91;;;-8.58;100.00
43153;BME280;28756;49.064;9.290;2022-12-13T04:35:05;98453.00;;;-8.61;100.00
43153;BME280;28756;49.064;9.290;2022-12-13T04:37:31;98449.53;;;-8.66;100.00
43153;BME280;28756;49.064;9.290;2022-12-13T04:39:57;98456.28;;;-8.67;100.00
43153;BME280;28756;49.064;9.290;2022-12-13T04:42:23;98450.31;;;-8.74;100.00
43153;BME280;28756;49.064;9.290;2022-12-13T04:44:49;98452.00;;;-8.71;100.00
43153;BME280;28756;49.064;9.290;2022-12-13T04:47:18;98446.91;;;-8.76;100.00
43153;BME280;28756;49.064;9.290;2022-12-13T04:49:43;98444.31;;;-8.82;100.00
43153;BME280;28756;49.064;9.290;2022-12-13T04:52:09;98445.88;;;-8.92;100.00
43153;BME280;28756;49.064;9.290;2022-12-13T04:54:35;98444.06;;;-9.02;100.00
43153;BME280;28756;49.064;9.290;2022-12-13T04:57:01;98444.03;;;-9.05;100.00
43153;BME280;28756;49.064;9.290;2022-12-13T04:59:27;98440.50;;;-9.15;100.00
43153;BME280;28756;49.064;9.290;2022-12-13T05:01:52;98431.16;;;-9.24;100.00
43153;BME280;28756;49.064;9.290;2022-12-13T05:04:18;98436.81;;;-9.39;100.00
43153;BME280;28756;49.064;9.290;2022-12-13T05:06:44;98441.16;;;-9.31;100.00
43153;BME280;28756;49.064;9.290;2022-12-13T05:09:09;98441.91;;;-9.34;100.00
43153;BME280;28756;49.064;9.290;2022-12-13T05:11:35;98442.19;;;-9.17;100.00
43153;BME280;28756;49.064;9.290;2022-12-13T05:14:01;98449.69;;;-9.18;100.00
43153;BME280;28756;49.064;9.290;2022-12-13T05:16:26;98440.41;;;-9.24;100.00
43153;BME280;28756;49.064;9.290;2022-12-13T05:18:52;98437.84;;;-9.26;100.00
43153;BME280;28756;49.064;9.290;2022-12-13T05:21:18;98434.44;;;-9.31;100.00
43153;BME280;28756;49.064;9.290;2022-12-13T05:23:43;98434.44;;;-9.29;100.00
43153;BME280;28756;49.064;9.290;2022-12-13T05:26:09;98442.78;;;-9.33;100.00
43153;BME280;28756;49.064;9.290;2022-12-13T05:28:35;98441.97;;;-9.31;100.00
43153;BME280;28756;49.064;9.290;2022-12-13T05:31:10;98447.84;;;-9.30;100.00
43153;BME280;28756;49.064;9.290;2022-12-13T05:33:36;98438.78;;;-9.19;100.00
43153;BME280;28756;49.064;9.290;2022-12-13T05:36:03;98441.19;;;-9.27;100.00
43153;BME280;28756;49.064;9.290;2022-12-13T05:38:30;98426.03;;;-9.30;100.00
43153;BME280;28756;49.064;9.290;2022-12-13T05:40:57;98430.34;;;-9.23;100.00
43153;BME280;28756;49.064;9.290;2022-12-13T05:43:23;98431.16;;;-9.24;100.00
43153;BME280;28756;49.064;9.290;2022-12-13T05:46:00;98434.72;;;-9.11;100.00
43153;BME280;28756;49.064;9.290;2022-12-13T05:48:34;98438.03;;;-9.13;100.00
43153;BME280;28756;49.064;9.290;2022-12-13T05:51:00;98432.94;;;-9.18;100.00
43153;BME280;28756;49.064;9.290;2022-12-13T05:53:26;98434.72;;;-9.09;100.00
43153;BME280;28756;49.064;9.290;2022-12-13T05:55:52;98432.19;;;-9.12;100.00
43153;BME280;28756;49.064;9.290;2022-12-13T05:58:18;98429.59;;;-9.17;100.00
43153;BME280;28756;49.064;9.290;2022-12-13T06:00:43;98432.88;;;-9.21;100.00
43153;BME280;28756;49.064;9.290;2022-12-13T06:03:09;98424.41;;;-9.26;100.00
43153;BME280;28756;49.064;9.290;2022-12-13T06:05:35;98424.38;;;-9.29;100.00
43153;BME280;28756;49.064;9.290;2022-12-13T06:08:00;98426.13;;;-9.22;100.00
43153;BME280;28756;49.064;9.290;2022-12-13T06:10:27;98427.91;;;-9.18;100.00
43153;BME280;28756;49.064;9.290;2022-12-13T06:12:53;98425.25;;;-9.26;100.00
43153;BME280;28756;49.064;9.290;2022-12-13T06:15:18;98427.75;;;-9.27;100.00
43153;BME280;28756;49.064;9.290;2022-12-13T06:17:44;98430.22;;;-9.32;100.00
43153;BME280;28756;49.064;9.290;2022-12-13T06:20:10;98423.47;;;-9.33;100.00
43153;BME280;28756;49.064;9.290;2022-12-13T06:22:36;98424.28;;;-9.37;100.00
43153;BME280;28756;49.064;9.290;2022-12-13T06:25:02;98426.03;;;-9.30;100.00
43153;BME280;28756;49.064;9.290;2022-12-13T06:27:28;98427.69;;;-9.30;100.00
43153;BME280;28756;49.064;9.290;2022-12-13T06:29:53;98423.47;;;-9.33;100.00
43153;BME280;28756;49.064;9.290;2022-12-13T06:32:19;98426.03;;;-9.30;100.00
43153;BME280;28756;49.064;9.290;2022-12-13T06:34:45;98415.03;;;-9.35;100.00
43153;BME280;28756;49.064;9.290;2022-12-13T06:37:12;98425.03;;;-9.43;100.00
43153;BME280;28756;49.064;9.290;2022-12-13T06:39:39;98424.03;;;-9.53;100.00
43153;BME280;28756;49.064;9.290;2022-12-13T06:42:06;98428.19;;;-9.55;100.00
43153;BME280;28756;49.064;9.290;2022-12-13T06:44:39;98426.41;;;-9.62;100.00
43153;BME280;28756;49.064;9.290;2022-12-13T06:47:05;98437.28;;;-9.64;100.00
43153;BME280;28756;49.064;9.290;2022-12-13T06:49:32;98432.91;;;-9.75;100.00
43153;BME280;28756;49.064;9.290;2022-12-13T06:51:58;98440.63;;;-9.65;100.00
43153;BME280;28756;49.064;9.290;2022-12-13T06:54:24;98442.00;;;-9.83;100.00
43153;BME280;28756;49.064;9.290;2022-12-13T06:56:49;98431.94;;;-9.85;100.00
43153;BME280;28756;49.064;9.290;2022-12-13T06:59:15;98440.28;;;-9.86;100.00
43153;BME280;28756;49.064;9.290;2022-12-13T07:01:41;98437.72;;;-9.89;100.00
43153;BME280;28756;49.064;9.290;2022-12-13T07:04:10;98441.91;;;-9.91;100.00
43153;BME280;28756;49.064;9.290;2022-12-13T07:06:36;98431.78;;;-9.92;100.00
43153;BME280;28756;49.064;9.290;2022-12-13T07:09:02;98431.78;;;-9.92;100.00
43153;BME280;28756;49.064;9.290;2022-12-13T07:11:31;98432.91;;;-9.76;100.00
43153;BME280;28756;49.064;9.290;2022-12-13T07:13:59;98436.25;;;-9.74;100.00
43153;BME280;28756;49.064;9.290;2022-12-13T07:16:26;98439.97;;;-9.54;100.00
43153;BME280;28756;49.064;9.290;2022-12-13T07:19:00;98439.97;;;-9.52;100.00
43153;BME280;28756;49.064;9.290;2022-12-13T07:21:26;98442.63;;;-9.44;100.00
43153;BME280;28756;49.064;9.290;2022-12-13T07:23:52;98437.72;;;-9.35;100.00
43153;BME280;28756;49.064;9.290;2022-12-13T07:26:18;98442.94;;;-9.24;100.00
43153;BME280;28756;49.064;9.290;2022-12-13T07:28:45;98437.00;;;-9.26;100.00
43153;BME280;28756;49.064;9.290;2022-12-13T07:31:12;98442.13;;;-9.22;100.00
43153;BME280;28756;49.064;9.290;2022-12-13T07:33:38;98446.28;;;-9.24;100.00
43153;BME280;28756;49.064;9.290;2022-12-13T07:36:09;98441.22;;;-9.25;100.00
43153;BME280;28756;49.064;9.290;2022-12-13T07:38:36;98458.94;;;-9.21;100.00
43153;BME280;28756;49.064;9.290;2022-12-13T07:41:03;98459.78;;;-9.18;100.00
43153;BME280;28756;49.064;9.290;2022-12-13T07:43:30;98461.47;;;-9.19;100.00
43153;BME280;28756;49.064;9.290;2022-12-13T07:46:01;98470.72;;;-9.16;100.00
43153;BME280;28756;49.064;9.290;2022-12-13T07:48:27;98470.75;;;-9.15;100.00
43153;BME280;28756;49.064;9.290;2022-12-13T07:50:59;98469.09;;;-9.14;100.00
43153;BME280;28756;49.064;9.290;2022-12-13T07:53:25;98484.28;;;-9.08;100.00
43153;BME280;28756;49.064;9.290;2022-12-13T07:55:51;98480.16;;;-9.03;100.00
43153;BME280;28756;49.064;9.290;2022-12-13T07:58:17;98462.56;;;-9.01;100.00
43153;BME280;28756;49.064;9.290;2022-12-13T08:00:44;98471.84;;;-8.97;100.00
43153;BME280;28756;49.064;9.290;2022-12-13T08:03:11;98470.94;;;-9.01;100.00
43153;BME280;28756;49.064;9.290;2022-12-13T08:05:38;98479.38;;;-8.99;100.00
43153;BME280;28756;49.064;9.290;2022-12-13T08:08:06;98480.28;;;-8.94;100.00
43153;BME280;28756;49.064;9.290;2022-12-13T08:10:32;98479.47;;;-8.91;100.00
43153;BME280;28756;49.064;9.290;2022-12-13T08:13:01;98479.66;;;-8.80;100.00
43153;BME280;28756;49.064;9.290;2022-12-13T08:15:28;98486.38;;;-8.78;100.00
43153;BME280;28756;49.064;9.290;2022-12-13T08:17:57;98482.25;;;-8.73;100.00
43153;BME280;28756;49.064;9.290;2022-12-13T08:20:25;98471.34;;;-8.70;100.00
43153;BME280;28756;49.064;9.290;2022-12-13T08:22:58;98484.13;;;-8.58;100.00
43153;BME280;28756;49.064;9.290;2022-12-13T08:25:24;98474.94;;;-8.52;100.00
43153;BME280;28756;49.064;9.290;2022-12-13T08:27:51;98475.03;;;-8.42;100.00
43153;BME280;28756;49.064;9.290;2022-12-13T08:30:17;98470.22;;;-8.23;100.00
43153;BME280;28756;49.064;9.290;2022-12-13T08:32:43;98463.56;;;-8.12;100.00
43153;BME280;28756;49.064;9.290;2022-12-13T08:35:09;98464.50;;;-8.05;100.00
43153;BME280;28756;49.064;9.290;2022-12-13T08:37:36;98461.19;;;-7.98;100.00
43153;BME280;28756;49.064;9.290;2022-12-13T08:40:02;98464.66;;;-7.88;100.00
43153;BME280;28756;49.064;9.290;2022-12-13T08:42:30;98470.66;;;-7.78;100.00
43153;BME280;28756;49.064;9.290;2022-12-13T08:44:56;98470.72;;;-7.70;100.00
43153;BME280;28756;49.064;9.290;2022-12-13T08:47:24;98482.59;;;-7.58;100.00
43153;BME280;28756;49.064;9.290;2022-12-13T08:49:52;98475.94;;;-7.52;100.00
43153;BME280;28756;49.064;9.290;2022-12-13T08:52:21;98473.47;;;-7.41;100.00
43153;BME280;28756;49.064;9.290;2022-12-13T08:54:47;98469.31;;;-7.36;100.00
43153;BME280;28756;49.064;9.290;2022-12-13T08:57:13;98466.84;;;-7.25;100.00
43153;BME280;28756;49.064;9.290;2022-12-13T08:59:38;98468.56;;;-7.22;100.00
43153;BME280;28756;49.064;9.290;2022-12-13T09:02:04;98473.66;;;-7.16;100.00
43153;BME280;28756;49.064;9.290;2022-12-13T09:04:30;98468.69;;;-7.05;100.00
43153;BME280;28756;49.064;9.290;2022-12-13T09:06:56;98472.97;;;-6.93;100.00
43153;BME280;28756;49.064;9.290;2022-12-13T09:09:21;98468.78;;;-6.84;100.00
43153;BME280;28756;49.064;9.290;2022-12-13T09:11:47;98466.28;;;-6.77;100.00
43153;BME280;28756;49.064;9.290;2022-12-13T09:14:13;98463.78;;;-6.74;100.00
43153;BME280;28756;49.064;9.290;2022-12-13T09:16:39;98468.09;;;-6.56;100.00
43153;BME280;28756;49.064;9.290;2022-12-13T09:19:04;98465.59;;;-6.52;100.00
43153;BME280;28756;49.064;9.290;2022-12-13T09:21:30;98460.53;;;-6.48;100.00
43153;BME280;28756;49.064;9.290;2022-12-13T09:23:56;98455.50;;;-6.41;100.00
43153;BME280;28756;49.064;9.290;2022-12-13T09:26:22;98456.38;;;-6.34;100.00
43153;BME280;28756;49.064;9.290;2022-12-13T09:28:48;98447.97;;;-6.27;100.00
43153;BME280;28756;49.064;9.290;2022-12-13T09:31:18;98447.97;;;-6.19;100.00
43153;BME280;28756;49.064;9.290;2022-12-13T09:33:45;98453.91;;;-6.09;100.00
43153;BME280;28756;49.064;9.290;2022-12-13T09:36:15;98451.38;;;-6.06;100.00
43153;BME280;28756;49.064;9.290;2022-12-13T09:38:41;98448.00;;;-5.94;100.00
43153;BME280;28756;49.064;9.290;2022-12-13T09:41:28;98441.25;;;-5.81;100.00
43153;BME280;28756;49.064;9.290;2022-12-13T09:44:10;98441.25;;;-5.60;100.00
43153;BME280;28756;49.064;9.290;2022-12-13T09:46:43;98434.53;;;-5.50;100.00
43153;BME280;28756;49.064;9.290;2022-12-13T09:51:52;98438.63;;;-4.81;100.00
43153;BME280;28756;49.064;9.290;2022-12-13T09:54:22;98429.19;;;-4.43;100.00
43153;BME280;28756;49.064;9.290;2022-12-13T09:56:50;98430.00;;;-4.35;100.00
43153;BME280;28756;49.064;9.290;2022-12-13T09:59:30;98424.75;;;-4.05;100.00
43153;BME280;28756;49.064;9.290;2022-12-13T10:02:29;98420.25;;;-3.68;100.00
43153;BME280;28756;49.064;9.290;2022-12-13T10:07:39;98413.47;;;-3.69;100.00
43153;BME280;28756;49.064;9.290;2022-12-13T10:10:05;98416.81;;;-3.60;100.00
43153;BME280;28756;49.064;9.290;2022-12-13T10:12:32;98407.94;;;-3.18;100.00
43153;BME280;28756;49.064;9.290;2022-12-13T10:15:00;98400.69;;;-2.74;100.00
43153;BME280;28756;49.064;9.290;2022-12-13T10:17:33;98409.03;;;-2.61;100.00
43153;BME280;28756;49.064;9.290;2022-12-13T10:20:02;98406.03;;;-2.95;100.00
43153;BME280;28756;49.064;9.290;2022-12-13T10:22:29;98400.09;;;-2.96;100.00
43153;BME280;28756;49.064;9.290;2022-12-13T10:25:01;98391.63;;;-2.28;100.00
43153;BME280;28756;49.064;9.290;2022-12-13T10:27:44;98391.41;;;-2.12;100.00
43153;BME280;28756;49.064;9.290;2022-12-13T10:30:20;98391.81;;;-1.82;100.00
43153;BME280;28756;49.064;9.290;2022-12-13T10:33:02;98385.84;;;-2.38;100.00
43153;BME280;28756;49.064;9.290;2022-12-13T10:35:37;98374.13;;;-1.90;100.00
43153;BME280;28756;49.064;9.290;2022-12-13T10:40:34;98371.91;;;-2.13;100.00
43153;BME280;28756;49.064;9.290;2022-12-13T10:43:19;98373.78;;;-2.95;100.00
43153;BME280;28756;49.064;9.290;2022-12-13T10:48:26;98369.09;;;-2.57;100.00
43153;BME280;28756;49.064;9.290;2022-12-13T10:51:08;98377.56;;;-3.30;100.00
43153;BME280;28756;49.064;9.290;2022-12-13T10:53:48;98374.91;;;-3.19;100.00
43153;BME280;28756;49.064;9.290;2022-12-13T10:56:19;98377.13;;;-2.88;100.00
43153;BME280;28756;49.064;9.290;2022-12-13T10:59:11;98377.31;;;-3.07;100.00
43153;BME280;28756;49.064;9.290;2022-12-13T11:01:47;98360.09;;;-2.81;100.00
43153;BME280;28756;49.064;9.290;2022-12-13T11:04:30;98364.66;;;-2.43;100.00
43153;BME280;28756;49.064;9.290;2022-12-13T11:07:22;98358.47;;;-2.90;100.00
43153;BME280;28756;49.064;9.290;2022-12-13T11:09:48;98360.09;;;-2.81;100.00
43153;BME280;28756;49.064;9.290;2022-12-13T11:12:24;98349.09;;;-2.85;100.00
43153;BME280;28756;49.064;9.290;2022-12-13T11:14:59;98341.97;;;-2.57;100.00
43153;BME280;28756;49.064;9.290;2022-12-13T11:17:29;98348.47;;;-3.04;100.00
43153;BME280;28756;49.064;9.290;2022-12-13T11:20:23;98349.47;;;-3.16;100.00
43153;BME280;28756;49.064;9.290;2022-12-13T11:22:48;98342.69;;;-3.17;100.00
43153;BME280;28756;49.064;9.290;2022-12-13T11:25:28;98341.03;;;-3.23;100.00
43153;BME280;28756;49.064;9.290;2022-12-13T11:39:49;98327.28;;;-3.05;100.00
43153;BME280;28756;49.064;9.290;2022-12-13T11:43:02;98333.19;;;-3.03;100.00
43153;BME280;28756;49.064;9.290;2022-12-13T11:45:44;98332.22;;;-2.94;100.00
43153;BME280;28756;49.064;9.290;2022-12-13T11:48:36;98335.22;;;-2.64;100.00
43153;BME280;28756;49.064;9.290;2022-12-13T11:51:08;98330.09;;;-2.58;100.00
43153;BME280;28756;49.064;9.290;2022-12-13T11:53:57;98320.47;;;-2.39;100.00
43153;BME280;28756;49.064;9.290;2022-12-13T11:56:29;98314.66;;;-2.48;100.00
43153;BME280;28756;49.064;9.290;2022-12-13T11:59:38;98311.03;;;-2.96;100.00
43153;BME280;28756;49.064;9.290;2022-12-13T12:02:26;98317.75;;;-2.90;100.00
43153;BME280;28756;49.064;9.290;2022-12-13T12:04:56;98311.69;;;-2.78;100.00
43153;BME280;28756;49.064;9.290;2022-12-13T12:07:44;98305.16;;;-2.98;100.00
43153;BME280;28756;49.064;9.290;2022-12-13T12:10:29;98302.28;;;-2.73;100.00
43153;BME280;28756;49.064;9.290;2022-12-13T12:13:34;98307.53;;;-2.86;100.00
43153;BME280;28756;49.064;9.290;2022-12-13T12:19:22;98298.31;;;-2.96;100.00
43153;BME280;28756;49.064;9.290;2022-12-13T12:21:54;98295.06;;;-3.06;100.00
43153;BME280;28756;49.064;9.290;2022-12-13T12:36:07;98297.97;;;-3.38;100.00
43153;BME280;28756;49.064;9.290;2022-12-13T12:39:03;98296.44;;;-3.52;100.00
43153;BME280;28756;49.064;9.290;2022-12-13T12:47:33;98315.25;;;-3.71;100.00
43153;BME280;28756;49.064;9.290;2022-12-13T12:53:33;98308.34;;;-3.58;100.00
43153;BME280;28756;49.064;9.290;2022-12-13T12:56:26;98305.81;;;-3.58;100.00
43153;BME280;28756;49.064;9.290;2022-12-13T13:04:34;98283.75;;;-3.55;100.00
43153;BME280;28756;49.064;9.290;2022-12-13T13:07:17;98278.63;;;-3.53;100.00
43153;BME280;28756;49.064;9.290;2022-12-13T13:09:46;98263.34;;;-3.49;100.00
43153;BME280;28756;49.064;9.290;2022-12-13T13:12:12;98260.78;;;-3.45;100.00
43153;BME280;28756;49.064;9.290;2022-12-13T13:14:39;98260.78;;;-3.47;100.00
43153;BME280;28756;49.064;9.290;2022-12-13T13:22:35;98256.38;;;-3.34;100.00
43153;BME280;28756;49.064;9.290;2022-12-13T13:27:40;98253.00;;;-3.33;100.00
43153;BME280;28756;49.064;9.290;2022-12-13T13:30:22;98260.53;;;-3.25;100.00
43153;BME280;28756;49.064;9.290;2022-12-13T13:32:52;98259.56;;;-3.15;100.00
43153;BME280;28756;49.064;9.290;2022-12-13T13:37:58;98270.47;;;-3.07;100.00
43153;BME280;28756;49.064;9.290;2022-12-13T13:40:30;98257.72;;;-3.04;100.00
43153;BME280;28756;49.064;9.290;2022-12-13T13:46:09;98266.19;;;-3.02;100.00
43153;BME280;28756;49.064;9.290;2022-12-13T13:49:03;98274.78;;;-3.12;100.00
43153;BME280;28756;49.064;9.290;2022-12-13T13:51:56;98273.91;;;-3.09;100.00
43153;BME280;28756;49.064;9.290;2022-12-13T14:19:51;98288.84;;;-3.55;100.00
43153;BME280;28756;49.064;9.290;2022-12-13T14:30:55;98275.34;;;-3.61;100.00
43153;BME280;28756;49.064;9.290;2022-12-13T14:33:22;98275.34;;;-3.60;100.00
43153;BME280;28756;49.064;9.290;2022-12-13T14:36:00;98286.34;;;-3.62;100.00
43153;BME280;28756;49.064;9.290;2022-12-13T14:38:31;98285.56;;;-3.65;100.00
43153;BME280;28756;49.064;9.290;2022-12-13T14:41:00;98279.63;;;-3.67;100.00
43153;BME280;28756;49.064;9.290;2022-12-13T14:43:33;98275.41;;;-3.71;100.00
43153;BME280;28756;49.064;9.290;2022-12-13T14:46:02;98277.16;;;-3.74;100.00
43153;BME280;28756;49.064;9.290;2022-12-13T14:48:34;98285.69;;;-3.80;100.00
43153;BME280;28756;49.064;9.290;2022-12-13T14:51:00;98284.03;;;-3.84;100.00
43153;BME280;28756;49.064;9.290;2022-12-13T14:53:35;98279.00;;;-3.90;100.00
43153;BME280;28756;49.064;9.290;2022-12-13T14:58:32;98262.13;;;-3.98;100.00
43153;BME280;28756;49.064;9.290;2022-12-13T15:00:57;98261.34;;;-4.03;100.00
43153;BME280;28756;49.064;9.290;2022-12-13T15:03:25;98267.25;;;-4.02;100.00
43153;BME280;28756;49.064;9.290;2022-12-13T15:05:56;98260.50;;;-4.05;100.00
43153;BME280;28756;49.064;9.290;2022-12-13T15:08:22;98253.78;;;-4.07;100.00
43153;BME280;28756;49.064;9.290;2022-12-13T15:10:57;98258.03;;;-4.11;100.00
43153;BME280;28756;49.064;9.290;2022-12-13T15:13:46;98249.59;;;-4.15;100.00
43153;BME280;28756;49.064;9.290;2022-12-13T15:16:25;98245.38;;;-4.19;100.00
43153;BME280;28756;49.064;9.290;2022-12-13T15:19:22;98251.38;;;-4.23;100.00